createdAt,value
2018-03-30T00:00:51.865Z,7.98
2018-03-30T00:03:20.526Z,7.95
2018-03-30T00:05:49.908Z,7.96
2018-03-30T00:08:19.133Z,8.08
2018-03-30T00:10:53.328Z,8.17
2018-03-30T00:13:21.920Z,8.33
2018-03-30T00:15:51.283Z,8.29
2018-03-30T00:18:19.908Z,8.27
2018-03-30T00:20:48.491Z,8.16
2018-03-30T00:23:17.086Z,8.23
2018-03-30T00:25:45.644Z,8.25
2018-03-30T00:28:15.038Z,8.05
2018-03-30T00:30:43.655Z,7.82
2018-03-30T00:33:12.243Z,7.77
2018-03-30T00:35:41.533Z,7.81
2018-03-30T00:38:10.511Z,7.75
2018-03-30T00:40:39.399Z,7.67
2018-03-30T00:43:08.202Z,7.63
2018-03-30T00:45:36.856Z,7.52
2018-03-30T00:48:06.254Z,7.39
2018-03-30T00:50:34.854Z,7.21
2018-03-30T00:53:03.489Z,7.02
2018-03-30T00:55:32.827Z,6.92
2018-03-30T00:58:01.670Z,6.95
2018-03-30T01:00:30.400Z,7.11
2018-03-30T01:02:59.090Z,7.32
2018-03-30T01:05:27.673Z,7.33
2018-03-30T01:07:56.295Z,7.20
2018-03-30T01:10:25.349Z,7.19
2018-03-30T01:12:54.473Z,7.37
2018-03-30T01:15:23.885Z,7.53
2018-03-30T01:17:52.548Z,7.42
2018-03-30T01:20:21.127Z,7.27
2018-03-30T01:22:49.753Z,7.00
2018-03-30T01:25:18.332Z,6.87
2018-03-30T01:27:47.730Z,6.92
2018-03-30T01:30:16.477Z,7.30
2018-03-30T01:32:45.078Z,7.37
2018-03-30T01:35:13.706Z,7.43
2018-03-30T01:37:42.459Z,7.51
2018-03-30T01:40:11.039Z,7.34
2018-03-30T01:42:40.496Z,7.45
2018-03-30T01:45:09.650Z,7.57
2018-03-30T01:47:38.328Z,7.57
2018-03-30T01:50:07.725Z,7.31
2018-03-30T01:52:36.301Z,7.38
2018-03-30T01:55:04.879Z,7.77
2018-03-30T01:57:34.314Z,7.94
2018-03-30T02:00:02.972Z,8.06
2018-03-30T02:02:31.624Z,8.21
2018-03-30T02:05:00.338Z,8.27
2018-03-30T02:07:28.923Z,8.31
2018-03-30T02:09:57.466Z,8.43
2018-03-30T02:12:26.205Z,8.51
2018-03-30T02:14:54.980Z,8.57
2018-03-30T02:17:24.302Z,8.64
2018-03-30T02:19:53.812Z,8.75
2018-03-30T02:22:22.373Z,8.83
2018-03-30T02:24:51.935Z,8.91
2018-03-30T02:27:20.619Z,9.10
2018-03-30T02:29:49.997Z,9.13
2018-03-30T02:32:18.597Z,9.19
2018-03-30T02:34:47.208Z,9.02
2018-03-30T02:37:15.884Z,8.63
2018-03-30T02:39:44.541Z,8.71
2018-03-30T02:42:13.140Z,8.64
2018-03-30T02:44:42.663Z,8.68
2018-03-30T02:47:11.694Z,8.72
2018-03-30T02:49:40.576Z,8.82
2018-03-30T02:52:09.175Z,9.01
2018-03-30T02:54:37.876Z,9.22
2018-03-30T02:57:06.375Z,9.56
2018-03-30T02:59:34.977Z,9.82
2018-03-30T03:02:03.694Z,9.91
2018-03-30T03:04:32.337Z,9.37
2018-03-30T03:07:00.940Z,9.10
2018-03-30T03:09:29.563Z,9.38
2018-03-30T03:11:58.944Z,9.56
2018-03-30T03:14:27.514Z,9.24
2018-03-30T03:16:56.239Z,9.40
2018-03-30T03:19:25.468Z,9.88
2018-03-30T03:21:54.548Z,10.29
2018-03-30T03:24:23.192Z,10.77
2018-03-30T03:26:52.412Z,11.03
2018-03-30T03:29:21.129Z,11.41
2018-03-30T03:31:49.784Z,11.44
2018-03-30T03:34:19.197Z,11.38
2018-03-30T03:36:47.751Z,11.44
2018-03-30T03:39:16.325Z,11.43
2018-03-30T03:41:44.994Z,11.50
2018-03-30T03:44:14.284Z,11.49
2018-03-30T03:46:42.938Z,11.53
2018-03-30T03:49:13.024Z,11.65
2018-03-30T03:51:42.174Z,11.69
2018-03-30T03:54:10.923Z,11.65
2018-03-30T03:56:39.547Z,11.84
2018-03-30T03:59:08.148Z,11.87
2018-03-30T04:01:36.782Z,11.91
2018-03-30T04:04:05.352Z,11.89
2018-03-30T04:06:34.738Z,12.01
2018-03-30T04:09:03.273Z,12.09
2018-03-30T04:11:31.879Z,12.06
2018-03-30T04:14:01.199Z,12.15
2018-03-30T04:16:30.538Z,12.14
2018-03-30T04:18:59.194Z,12.23
2018-03-30T04:21:28.448Z,12.29
2018-03-30T04:23:57.658Z,12.30
2018-03-30T04:26:27.022Z,12.33
2018-03-30T04:28:55.646Z,12.32
2018-03-30T04:31:24.327Z,12.33
2018-03-30T04:33:52.939Z,12.36
2018-03-30T04:36:21.535Z,12.32
2018-03-30T04:38:50.043Z,12.37
2018-03-30T04:41:18.717Z,12.43
2018-03-30T04:43:48.137Z,12.40
2018-03-30T04:46:17.612Z,12.37
2018-03-30T04:48:46.195Z,12.41
2018-03-30T04:51:15.113Z,12.39
2018-03-30T04:53:44.637Z,12.38
2018-03-30T04:56:13.518Z,12.37
2018-03-30T04:58:42.923Z,12.45
2018-03-30T05:01:11.552Z,12.46
2018-03-30T05:03:40.168Z,12.45
2018-03-30T05:06:08.865Z,12.36
2018-03-30T05:08:37.574Z,12.44
2018-03-30T05:11:06.217Z,12.33
2018-03-30T05:13:34.836Z,12.43
2018-03-30T05:16:03.384Z,12.49
2018-03-30T05:18:32.878Z,12.43
2018-03-30T05:21:01.543Z,12.54
2018-03-30T05:23:30.607Z,12.49
2018-03-30T05:25:59.566Z,12.45
2018-03-30T05:28:28.521Z,12.49
2018-03-30T05:30:57.090Z,12.43
2018-03-30T05:33:25.716Z,12.32
2018-03-30T05:35:56.041Z,12.38
2018-03-30T05:38:24.697Z,12.34
2018-03-30T05:40:53.355Z,12.33
2018-03-30T05:43:22.048Z,12.31
2018-03-30T05:45:51.108Z,12.25
2018-03-30T05:48:19.889Z,12.23
2018-03-30T05:50:48.999Z,12.16
2018-03-30T05:53:17.716Z,12.18
2018-03-30T05:55:46.723Z,12.18
2018-03-30T05:58:15.563Z,12.21
2018-03-30T06:00:44.285Z,12.20
2018-03-30T06:03:12.864Z,12.25
2018-03-30T06:05:41.832Z,12.29
2018-03-30T06:08:11.247Z,12.33
2018-03-30T06:10:40.711Z,12.38
2018-03-30T06:13:09.318Z,12.44
2018-03-30T06:15:37.988Z,12.44
2018-03-30T06:18:07.375Z,12.44
2018-03-30T06:20:35.998Z,12.46
2018-03-30T06:23:04.804Z,12.52
2018-03-30T06:25:33.771Z,12.65
2018-03-30T06:28:02.967Z,12.63
2018-03-30T06:30:32.796Z,12.62
2018-03-30T06:33:01.505Z,12.61
2018-03-30T06:35:30.216Z,12.61
2018-03-30T06:37:58.972Z,12.60
2018-03-30T06:40:27.590Z,12.62
2018-03-30T06:42:56.388Z,12.57
2018-03-30T06:45:25.069Z,12.67
2018-03-30T06:47:53.930Z,12.68
2018-03-30T06:50:23.639Z,12.69
2018-03-30T06:52:52.320Z,12.75
2018-03-30T06:55:22.266Z,12.67
2018-03-30T06:57:51.610Z,12.74
2018-03-30T07:00:21.980Z,12.71
2018-03-30T07:02:51.503Z,12.93
2018-03-30T07:05:20.263Z,12.97
2018-03-30T07:07:48.928Z,13.11
2018-03-30T07:10:18.628Z,13.18
2018-03-30T07:12:47.780Z,13.36
2018-03-30T07:15:16.832Z,13.52
2018-03-30T07:17:45.560Z,13.82
2018-03-30T07:20:14.323Z,13.99
2018-03-30T07:22:43.857Z,14.24
2018-03-30T07:25:12.730Z,14.22
2018-03-30T07:27:41.903Z,14.35
2018-03-30T07:30:11.004Z,14.28
2018-03-30T07:32:39.712Z,14.35
2018-03-30T07:35:08.421Z,14.38
2018-03-30T07:37:37.169Z,14.93
2018-03-30T07:40:07.270Z,15.42
2018-03-30T07:42:36.042Z,16.34
2018-03-30T07:45:04.696Z,17.21
2018-03-30T07:47:33.433Z,17.12
2018-03-30T07:50:02.405Z,16.96
2018-03-30T07:52:31.274Z,17.51
2018-03-30T07:55:01.208Z,18.08
2018-03-30T07:57:30.489Z,18.78
2018-03-30T08:00:00.298Z,19.28
2018-03-30T08:02:29.218Z,20.13
2018-03-30T08:04:57.860Z,19.91
2018-03-30T08:07:26.564Z,19.71
2018-03-30T08:09:55.501Z,19.16
2018-03-30T08:12:25.289Z,18.32
2018-03-30T08:14:54.907Z,18.15
2018-03-30T08:17:24.202Z,17.73
2018-03-30T08:19:53.656Z,17.23
2018-03-30T08:22:22.700Z,17.28
2018-03-30T08:24:51.438Z,17.68
2018-03-30T08:27:20.564Z,17.91
2018-03-30T08:29:50.818Z,17.69
2018-03-30T08:32:19.699Z,17.07
2018-03-30T08:34:48.344Z,17.36
2018-03-30T08:37:17.229Z,17.23
2018-03-30T08:39:46.708Z,17.35
2018-03-30T08:42:15.368Z,17.78
2018-03-30T08:44:44.696Z,18.52
2018-03-30T08:47:13.382Z,17.79
2018-03-30T08:49:42.097Z,17.94
2018-03-30T08:52:11.534Z,18.36
2018-03-30T08:54:40.989Z,18.02
2018-03-30T08:57:10.994Z,17.59
2018-03-30T08:59:40.924Z,18.23
2018-03-30T09:02:11.309Z,18.30
2018-03-30T09:04:40.166Z,18.00
2018-03-30T09:07:08.895Z,17.68
2018-03-30T09:09:38.614Z,17.61
2018-03-30T09:12:09.657Z,18.06
2018-03-30T09:14:38.920Z,18.27
2018-03-30T09:17:07.751Z,18.93
2018-03-30T09:19:36.411Z,19.34
2018-03-30T09:22:05.907Z,19.83
2018-03-30T09:24:34.921Z,19.48
2018-03-30T09:27:04.029Z,19.16
2018-03-30T09:29:32.762Z,19.43
2018-03-30T09:32:01.630Z,19.68
2018-03-30T09:34:30.455Z,20.55
2018-03-30T09:36:59.467Z,21.28
2018-03-30T09:39:28.241Z,21.00
2018-03-30T09:41:57.175Z,20.38
2018-03-30T09:44:25.967Z,20.73
2018-03-30T09:46:54.819Z,20.85
2018-03-30T09:49:24.122Z,20.91
2018-03-30T09:51:53.026Z,20.45
2018-03-30T09:54:22.093Z,21.20
2018-03-30T09:56:51.447Z,21.00
2018-03-30T09:59:21.203Z,19.81
2018-03-30T10:01:52.259Z,21.28
2018-03-30T10:04:24.256Z,21.81
2018-03-30T10:06:53.548Z,22.12
2018-03-30T10:09:23.813Z,21.29
2018-03-30T10:11:54.786Z,21.67
2018-03-30T10:14:24.354Z,21.19
2018-03-30T10:16:54.202Z,20.60
2018-03-30T10:19:23.942Z,20.48
2018-03-30T10:21:53.676Z,20.89
2018-03-30T10:24:23.528Z,21.01
2018-03-30T10:26:52.672Z,20.76
2018-03-30T10:29:22.086Z,20.55
2018-03-30T10:31:51.202Z,20.33
2018-03-30T10:34:20.880Z,20.85
2018-03-30T10:36:50.193Z,21.68
2018-03-30T10:39:21.204Z,22.09
2018-03-30T10:41:51.178Z,21.36
2018-03-30T10:44:20.897Z,20.88
2018-03-30T10:46:51.690Z,20.50
2018-03-30T10:49:21.114Z,21.14
2018-03-30T10:51:49.868Z,20.25
2018-03-30T10:54:18.682Z,19.76
2018-03-30T10:56:47.493Z,19.78
2018-03-30T10:59:16.176Z,19.66
2018-03-30T11:01:45.526Z,19.65
2018-03-30T11:04:15.977Z,20.28
2018-03-30T11:06:44.657Z,20.24
2018-03-30T11:09:13.402Z,20.81
2018-03-30T11:11:43.819Z,20.39
2018-03-30T11:14:13.179Z,20.49
2018-03-30T11:16:43.855Z,20.51
2018-03-30T11:19:12.565Z,20.64
2018-03-30T11:21:41.213Z,21.08
2018-03-30T11:24:09.865Z,21.80
2018-03-30T11:26:38.845Z,20.24
2018-03-30T11:29:08.460Z,20.11
2018-03-30T11:31:37.209Z,20.30
2018-03-30T11:34:05.953Z,20.46
2018-03-30T11:36:35.281Z,20.31
2018-03-30T11:39:04.247Z,20.43
2018-03-30T11:41:34.005Z,20.59
2018-03-30T11:44:03.582Z,20.54
2018-03-30T11:46:33.085Z,21.38
2018-03-30T11:49:02.233Z,20.88
2018-03-30T11:51:30.936Z,20.76
2018-03-30T11:53:59.603Z,21.26
2018-03-30T11:56:28.476Z,21.75
2018-03-30T11:58:57.447Z,21.53
2018-03-30T12:01:27.114Z,22.29
2018-03-30T12:03:56.501Z,22.35
2018-03-30T12:06:26.087Z,21.47
2018-03-30T12:08:54.905Z,21.32
2018-03-30T12:11:24.435Z,22.00
2018-03-30T12:13:54.330Z,21.28
2018-03-30T12:16:24.424Z,22.10
2018-03-30T12:18:53.362Z,22.13
2018-03-30T12:21:22.202Z,22.04
2018-03-30T12:23:51.128Z,21.95
2018-03-30T12:26:19.995Z,21.77
2018-03-30T12:28:49.104Z,21.66
2018-03-30T12:31:17.999Z,20.76
2018-03-30T12:33:47.728Z,21.60
2018-03-30T12:36:16.867Z,21.93
2018-03-30T12:38:45.775Z,21.68
2018-03-30T12:41:15.198Z,21.38
2018-03-30T12:43:45.555Z,20.70
2018-03-30T12:46:15.258Z,20.59
2018-03-30T12:48:44.760Z,19.98
2018-03-30T12:51:13.688Z,20.21
2018-03-30T12:53:42.676Z,19.87
2018-03-30T12:56:11.568Z,19.89
2018-03-30T12:58:40.602Z,19.97
2018-03-30T13:01:10.960Z,20.02
2018-03-30T13:03:39.912Z,20.24
2018-03-30T13:06:08.857Z,20.07
2018-03-30T13:08:37.941Z,20.27
2018-03-30T13:11:07.707Z,20.32
2018-03-30T13:13:38.780Z,20.31
2018-03-30T13:16:08.169Z,19.86
2018-03-30T13:18:38.183Z,20.18
2018-03-30T13:21:07.281Z,20.18
2018-03-30T13:23:36.383Z,19.95
2018-03-30T13:26:05.471Z,19.92
2018-03-30T13:28:35.095Z,19.68
2018-03-30T13:31:05.417Z,19.82
2018-03-30T13:33:34.646Z,19.85
2018-03-30T13:36:04.801Z,20.02
2018-03-30T13:38:34.556Z,19.91
2018-03-30T13:41:03.471Z,19.55
2018-03-30T13:43:32.370Z,19.69
2018-03-30T13:46:01.388Z,19.67
2018-03-30T13:48:30.387Z,19.73
2018-03-30T13:51:12.276Z,19.85
2018-03-30T13:53:43.690Z,19.73
2018-03-30T13:56:14.196Z,19.51
2018-03-30T13:58:49.946Z,19.72
2018-03-30T14:01:22.132Z,19.47
2018-03-30T14:04:08.899Z,19.42
2018-03-30T14:06:51.557Z,19.04
2018-03-30T14:09:25.926Z,18.97
2018-03-30T14:12:03.525Z,18.93
2018-03-30T14:14:32.913Z,18.47
2018-03-30T14:17:05.878Z,18.26
2018-03-30T14:19:42.853Z,18.17
2018-03-30T14:22:35.200Z,18.10
2018-03-30T14:25:08.627Z,18.05
2018-03-30T14:27:45.439Z,17.99
2018-03-30T14:30:21.192Z,18.20
2018-03-30T14:33:05.872Z,18.29
2018-03-30T14:35:45.176Z,18.32
2018-03-30T14:38:25.151Z,18.21
2018-03-30T14:40:54.261Z,17.99
2018-03-30T14:43:44.282Z,17.95
2018-03-30T14:46:17.176Z,17.66
2018-03-30T14:48:56.791Z,17.55
2018-03-30T14:51:43.782Z,17.53
2018-03-30T14:54:20.143Z,17.46
2018-03-30T14:59:58.132Z,17.38
2018-03-30T15:02:32.495Z,17.38
2018-03-30T15:08:59.328Z,17.17
2018-03-30T15:14:45.981Z,17.15
2018-03-30T15:20:37.078Z,17.06
2018-03-30T15:23:16.844Z,17.02
2018-03-30T15:26:05.161Z,17.06
2018-03-30T15:28:36.730Z,17.02
2018-03-30T15:34:35.081Z,17.03
2018-03-30T15:37:17.562Z,16.94
2018-03-30T15:40:01.439Z,16.92
2018-03-30T15:42:40.018Z,17.06
2018-03-30T15:45:16.737Z,17.11
2018-03-30T15:47:45.935Z,17.08
2018-03-30T15:50:15.498Z,17.06
2018-03-30T15:52:45.551Z,17.13
2018-03-30T15:55:14.859Z,17.08
2018-03-30T15:57:44.047Z,17.10
2018-03-30T16:00:18.603Z,17.08
2018-03-30T16:02:48.390Z,17.06
2018-03-30T16:05:19.245Z,17.03
2018-03-30T16:07:49.785Z,16.93
2018-03-30T16:10:34.668Z,16.82
2018-03-30T16:13:05.046Z,16.61
2018-03-30T16:15:34.316Z,16.53
2018-03-30T16:18:05.338Z,16.32
2018-03-30T16:20:35.038Z,15.99
2018-03-30T16:23:05.319Z,15.70
2018-03-30T16:25:34.409Z,15.53
2018-03-30T16:28:03.299Z,15.32
2018-03-30T16:30:32.165Z,15.07
2018-03-30T16:33:01.125Z,14.81
2018-03-30T16:35:31.068Z,14.58
2018-03-30T16:38:00.688Z,14.35
2018-03-30T16:40:29.212Z,14.15
2018-03-30T16:42:57.765Z,14.01
2018-03-30T16:45:26.256Z,13.75
2018-03-30T16:47:56.277Z,13.62
2018-03-30T16:50:25.463Z,13.66
2018-03-30T16:52:55.442Z,13.55
2018-03-30T16:55:24.136Z,13.33
2018-03-30T16:57:52.702Z,13.22
2018-03-30T17:00:22.610Z,13.14
2018-03-30T17:02:52.950Z,12.97
2018-03-30T17:05:21.834Z,12.93
2018-03-30T17:07:51.073Z,12.76
2018-03-30T17:10:19.714Z,12.70
2018-03-30T17:12:48.429Z,12.63
2018-03-30T17:15:16.638Z,12.52
2018-03-30T17:17:47.365Z,12.52
2018-03-30T17:20:16.188Z,12.39
2018-03-30T17:22:44.832Z,12.40
2018-03-30T17:25:13.022Z,12.45
2018-03-30T17:27:41.410Z,12.40
2018-03-30T17:30:09.767Z,12.36
2018-03-30T17:32:39.539Z,12.35
2018-03-30T17:35:08.058Z,12.35
2018-03-30T17:37:36.338Z,12.40
2018-03-30T17:40:04.449Z,12.38
2018-03-30T17:42:32.681Z,12.32
2018-03-30T17:45:00.854Z,12.35
2018-03-30T17:47:29.012Z,12.33
2018-03-30T17:49:57.972Z,12.34
2018-03-30T17:52:27.212Z,12.37
2018-03-30T17:54:55.937Z,12.33
2018-03-30T17:57:26.278Z,12.39
2018-03-30T17:59:54.507Z,12.33
2018-03-30T18:02:22.731Z,12.36
2018-03-30T18:04:51.047Z,12.30
2018-03-30T18:07:19.271Z,12.29
2018-03-30T18:09:48.101Z,12.25
2018-03-30T18:12:17.102Z,12.22
2018-03-30T18:14:46.268Z,12.24
2018-03-30T18:17:15.183Z,12.14
2018-03-30T18:19:43.397Z,12.15
2018-03-30T18:22:12.484Z,12.17
2018-03-30T18:24:40.952Z,12.17
2018-03-30T18:27:09.497Z,12.23
2018-03-30T18:29:38.482Z,12.24
2018-03-30T18:32:07.909Z,12.27
2018-03-30T18:34:36.340Z,12.23
2018-03-30T18:37:04.854Z,12.19
2018-03-30T18:39:33.092Z,12.16
2018-03-30T18:42:02.162Z,12.08
2018-03-30T18:44:30.230Z,11.99
2018-03-30T18:46:58.630Z,11.91
2018-03-30T18:49:26.835Z,11.84
2018-03-30T18:51:55.013Z,11.80
2018-03-30T18:54:24.252Z,11.77
2018-03-30T18:56:52.554Z,11.73
2018-03-30T18:59:20.812Z,11.70
2018-03-30T19:01:48.986Z,11.73
2018-03-30T19:04:17.189Z,11.72
2018-03-30T19:06:46.426Z,11.73
2018-03-30T19:09:15.464Z,11.80
2018-03-30T19:11:44.107Z,11.82
2018-03-30T19:14:13.106Z,11.89
2018-03-30T19:16:41.581Z,11.94
2018-03-30T19:19:09.960Z,12.00
2018-03-30T19:21:39.968Z,12.02
2018-03-30T19:24:08.961Z,12.07
2018-03-30T19:26:38.134Z,12.04
2018-03-30T19:29:06.904Z,12.07
2018-03-30T19:31:36.677Z,12.04
2018-03-30T19:34:05.497Z,12.03
2018-03-30T19:36:33.881Z,12.00
2018-03-30T19:39:04.124Z,11.98
2018-03-30T19:41:32.823Z,11.97
2018-03-30T19:44:02.827Z,11.88
2018-03-30T19:46:31.239Z,11.89
2018-03-30T19:48:59.831Z,11.93
2018-03-30T19:51:28.296Z,11.89
2018-03-30T19:53:56.969Z,11.88
2018-03-30T19:56:26.728Z,11.92
2018-03-30T19:58:55.128Z,11.94
2018-03-30T20:01:23.385Z,11.94
2018-03-30T20:03:51.681Z,11.92
2018-03-30T20:06:20.180Z,11.93
2018-03-30T20:08:49.117Z,11.86
2018-03-30T20:11:18.243Z,11.89
2018-03-30T20:13:54.559Z,11.97
2018-03-30T20:16:24.176Z,11.94
2018-03-30T20:18:52.314Z,11.99
2018-03-30T20:21:23.457Z,11.98
2018-03-30T20:23:51.497Z,11.97
2018-03-30T20:26:20.845Z,11.95
2018-03-30T20:28:49.541Z,11.96
2018-03-30T20:31:18.390Z,11.97
2018-03-30T20:33:46.642Z,12.00
2018-03-30T20:36:16.261Z,11.98
2018-03-30T20:38:45.682Z,11.96
2018-03-30T20:41:14.563Z,11.96
2018-03-30T20:43:42.684Z,11.88
2018-03-30T20:46:11.162Z,11.89
2018-03-30T20:48:42.482Z,11.97
2018-03-30T20:51:10.852Z,12.02
2018-03-30T20:53:39.026Z,11.98
2018-03-30T20:56:07.205Z,11.99
2018-03-30T20:58:35.759Z,11.96
2018-03-30T21:01:04.632Z,11.96
2018-03-30T21:03:32.816Z,11.96
2018-03-30T21:06:02.398Z,11.91
2018-03-30T21:08:31.219Z,11.94
2018-03-30T21:11:00.027Z,11.98
2018-03-30T21:13:29.265Z,11.97
2018-03-30T21:15:57.549Z,12.00
2018-03-30T21:18:25.749Z,11.92
2018-03-30T21:20:56.612Z,11.94
2018-03-30T21:26:11.466Z,11.90
2018-03-30T21:28:39.750Z,11.85
2018-03-30T21:31:08.327Z,11.87
2018-03-30T21:33:36.832Z,11.88
2018-03-30T21:36:04.884Z,11.84
2018-03-30T21:38:32.892Z,11.90
2018-03-30T21:41:02.820Z,11.86
2018-03-30T21:43:31.680Z,11.85
2018-03-30T21:45:59.973Z,11.86
2018-03-30T21:48:28.063Z,11.81
2018-03-30T21:51:01.629Z,11.90
2018-03-30T21:53:38.531Z,12.03
2018-03-30T21:56:07.813Z,12.03
2018-03-30T21:58:35.650Z,12.00
2018-03-30T22:01:03.584Z,12.05
2018-03-30T22:03:36.580Z,12.01
2018-03-30T22:06:06.671Z,12.05
2018-03-30T22:08:36.265Z,12.06
2018-03-30T22:11:04.754Z,12.01
2018-03-30T22:13:35.657Z,12.08
2018-03-30T22:16:04.521Z,11.99
2018-03-30T22:18:32.593Z,11.89
2018-03-30T22:21:00.889Z,11.85
2018-03-30T22:23:29.445Z,11.86
2018-03-30T22:26:00.141Z,11.92
2018-03-30T22:28:28.464Z,11.92
2018-03-30T22:30:56.488Z,11.89
2018-03-30T22:33:26.607Z,11.85
2018-03-30T22:35:55.100Z,11.83
2018-03-30T22:38:23.422Z,11.80
2018-03-30T22:40:51.447Z,11.75
2018-03-30T22:43:20.871Z,11.89
2018-03-30T22:45:49.593Z,11.87
2018-03-30T22:48:17.512Z,11.90
2018-03-30T22:50:45.371Z,11.87
2018-03-30T22:53:13.307Z,11.85
2018-03-30T22:55:41.362Z,11.82
2018-03-30T22:58:09.589Z,12.02
2018-03-30T23:00:38.411Z,12.06
2018-03-30T23:03:06.270Z,12.11
2018-03-30T23:05:34.026Z,12.17
2018-03-30T23:08:02.482Z,12.20
2018-03-30T23:10:30.274Z,12.25
2018-03-30T23:12:58.009Z,12.32
2018-03-30T23:15:26.598Z,12.36
2018-03-30T23:17:55.050Z,12.45
2018-03-30T23:20:22.758Z,12.42
2018-03-30T23:22:50.525Z,12.46
2018-03-30T23:25:18.269Z,12.42
2018-03-30T23:27:46.751Z,12.43
2018-03-30T23:30:14.453Z,12.44
2018-03-30T23:32:43.019Z,12.55
2018-03-30T23:35:10.828Z,12.59
2018-03-30T23:37:38.534Z,12.66
2018-03-30T23:40:06.870Z,12.67
2018-03-30T23:42:35.064Z,12.69
2018-03-30T23:45:03.165Z,12.65
2018-03-30T23:47:31.046Z,12.82
2018-03-30T23:49:58.813Z,12.82
2018-03-30T23:52:26.509Z,12.77
2018-03-30T23:54:54.354Z,12.76
2018-03-30T23:57:22.254Z,12.73
2018-03-30T23:59:50.888Z,12.65
